www.meteoamater.cz
Weather data: current nedle, 29.03.2020 06:55
Date Time Temperature Humidity Barometer Rain Wind Sunshine ET UV - Index Solar Dewpoint Wind chill Wind gust
29.03.2020 06:55 0,9 C 76 % 1013,8 hPa 0,0 l/m2 5,7 km/h (1 Bft) 0 min 0,026 mm 0,0 UV-I 10 W/m2 -2,8 C -0,9 C 25,1 km/h (4 Bft)
29.03.2020 05:55 1,9 C 67 % 1013,6 hPa 0,0 l/m2 4,8 km/h (1 Bft) 0 min 0,025 mm 0,0 UV-I 0 W/m2 -3,6 C 0,7 C 19,3 km/h (3 Bft)
29.03.2020 04:55 1,8 C 62 % 1013,5 hPa 0,0 l/m2 7,8 km/h (2 Bft) 0 min 0,001 mm 0,0 UV-I 0 W/m2 -4,7 C -0,6 C 23,2 km/h (4 Bft)
29.03.2020 03:55 1,2 C 61 % 1013,6 hPa 0,0 l/m2 4,2 km/h (1 Bft) 0 min 0,000 mm 0,0 UV-I 0 W/m2 -5,5 C 1,2 C 13,5 km/h (3 Bft)
29.03.2020 01:55 0,9 C 78 % 1013,5 hPa 0,0 l/m2 0,0 km/h (0 Bft) 0 min 0,025 mm 0,0 UV-I 0 W/m2 -2,5 C 0,9 C 1,9 km/h (1 Bft)
29.03.2020 00:55 2,3 C 76 % 1014,0 hPa 0,0 l/m2 0,0 km/h (0 Bft) 0 min 0,000 mm 0,0 UV-I 0 W/m2 -1,5 C 2,3 C 0,0 km/h (0 Bft)
28.03.2020 23:55 4,5 C 70 % 1014,2 hPa 0,0 l/m2 0,0 km/h (0 Bft) 0 min 0,025 mm 0,0 UV-I 0 W/m2 -0,5 C 4,5 C 1,9 km/h (1 Bft)
28.03.2020 22:55 5,7 C 69 % 1014,4 hPa 0,0 l/m2 2,5 km/h (1 Bft) 0 min 0,026 mm 0,0 UV-I 0 W/m2 0,5 C 5,7 C 21,2 km/h (4 Bft)
28.03.2020 21:55 5,8 C 65 % 1014,6 hPa 0,0 l/m2 2,8 km/h (1 Bft) 0 min 0,025 mm 0,0 UV-I 0 W/m2 -0,3 C 5,8 C 13,5 km/h (3 Bft)
28.03.2020 20:55 6,2 C 61 % 1014,6 hPa 0,0 l/m2 0,2 km/h (0 Bft) 0 min 0,026 mm 0,0 UV-I 0 W/m2 -0,7 C 6,2 C 3,9 km/h (1 Bft)
28.03.2020 19:55 6,8 C 58 % 1014,7 hPa 0,0 l/m2 7,2 km/h (2 Bft) 0 min 0,025 mm 0,0 UV-I 0 W/m2 -0,9 C 5,5 C 15,4 km/h (3 Bft)
28.03.2020 18:55 7,6 C 53 % 1014,4 hPa 0,0 l/m2 0,7 km/h (0 Bft) 5 min 0,051 mm 0,0 UV-I 0 W/m2 -1,4 C 7,6 C 11,6 km/h (2 Bft)
28.03.2020 17:55 9,3 C 52 % 1013,7 hPa 0,0 l/m2 2,1 km/h (1 Bft) 15 min 0,101 mm 0,0 UV-I 24 W/m2 -0,0 C 9,3 C 9,7 km/h (2 Bft)
28.03.2020 16:55 10,8 C 51 % 1013,6 hPa 0,0 l/m2 5,3 km/h (1 Bft) 15 min 0,153 mm 0,5 UV-I 137 W/m2 1,1 C 10,8 C 21,2 km/h (4 Bft)
28.03.2020 15:55 11,8 C 49 % 1013,7 hPa 0,0 l/m2 6,9 km/h (2 Bft) 35 min 0,254 mm 0,9 UV-I 182 W/m2 1,4 C 11,8 C 23,2 km/h (4 Bft)
28.03.2020 14:55 12,8 C 47 % 1013,6 hPa 0,0 l/m2 2,6 km/h (1 Bft) 60 min 0,330 mm 1,4 UV-I 331 W/m2 1,8 C 12,8 C 15,4 km/h (3 Bft)
28.03.2020 13:55 13,7 C 44 % 1014,1 hPa 0,0 l/m2 3,9 km/h (1 Bft) 60 min 0,356 mm 2,2 UV-I 560 W/m2 1,7 C 13,7 C 13,5 km/h (3 Bft)
28.03.2020 12:55 14,2 C 42 % 1014,5 hPa 0,0 l/m2 4,3 km/h (1 Bft) 60 min 0,355 mm 2,7 UV-I 632 W/m2 1,5 C 14,2 C 11,6 km/h (2 Bft)
28.03.2020 11:55 14,0 C 42 % 1014,9 hPa 0,0 l/m2 3,8 km/h (1 Bft) 60 min 0,330 mm 2,8 UV-I 659 W/m2 1,3 C 14,0 C 13,5 km/h (3 Bft)
28.03.2020 10:55 13,4 C 43 % 1015,4 hPa 0,0 l/m2 4,7 km/h (1 Bft) 60 min 0,280 mm 2,5 UV-I 628 W/m2 1,1 C 13,4 C 17,4 km/h (3 Bft)
28.03.2020 09:55 12,4 C 47 % 1015,9 hPa 0,0 l/m2 3,9 km/h (1 Bft) 60 min 0,178 mm 1,9 UV-I 550 W/m2 1,4 C 12,4 C 15,4 km/h (3 Bft)
28.03.2020 08:55 11,0 C 50 % 1016,2 hPa 0,0 l/m2 5,4 km/h (1 Bft) 60 min 0,101 mm 1,3 UV-I 431 W/m2 1,0 C 11,0 C 11,6 km/h (2 Bft)
28.03.2020 07:55 7,8 C 65 % 1016,2 hPa 0,0 l/m2 0,1 km/h (0 Bft) 55 min 0,026 mm 0,7 UV-I 287 W/m2 1,6 C 7,8 C 1,9 km/h (1 Bft)
28.03.2020 07:00 1,7 C 85 % 1016,4 hPa 0,0 l/m2 0,0 km/h (0 Bft) 0 min 0,026 mm 0,1 UV-I 54 W/m2 -0,5 C 1,7 C 0,0 km/h (0 Bft)
_ Min-Time 03:10 13:20 05:35 - 03:45 - - - - 04:10 06:25 03:30
Minimum _ 0,6 C 40 % 1013,3 hPa - 0,0 km/h (0 Bft) - - - - -5,6 C -2,2 C 0,0 km/h (0 Bft)
_ Max-Time 13:20 07:10 07:00 06:55 06:25 18:15 13:00 12:00 12:00 14:25 13:20 16:25
Maximum _ 14,4 C 85 % 1016,4 hPa 0,0 l/m2 11,7 km/h
W-NW (2 Bft)
5 min 0,356 mm 2,9 UV-I 663 W/m2 1,8 C 14,4 C 36,7 km/h
NW (5 Bft)
Average _ 7,0 C 60 % 1014,5 hPa #0,0 l/m2 3,1 km/h (1 Bft) #0 min. #0,102 mm 0,0 UV-I 6 W/m2 -0,5 C 6,9 C 11,6 km/h (2 Bft)
©2007-2020 Meteoamater.cz